Time;durP1;ratioP1;P1;durP2;ratioP2;P2;SDS_P1;SDS_P2;PMS_P1;PMS_P2;Temp;Humidity;BMP_temperature;BMP_pressure;BME280_temperature;BME280_humidity;BME280_pressure;Samples;Min_cycle;Max_cycle;Signal;HPM_P1;HPM_P2
2022/07/05 00:01:52;;;;;;;1.48;1.30;;;23.00;47.50;;;;;;5089623;28;20028;-85
2022/07/05 00:04:18;;;;;;;2.20;1.50;;;23.00;47.60;;;;;;5068311;28;20118;-85
2022/07/05 00:09:28;;;;;;;1.38;1.27;;;22.90;47.70;;;;;;5113539;28;20150;-84
2022/07/05 00:11:54;;;;;;;1.88;1.40;;;22.90;47.80;;;;;;5109540;28;20035;-85
2022/07/05 00:14:20;;;;;;;2.00;1.33;;;22.80;47.80;;;;;;5096475;28;20042;-85
2022/07/05 00:16:45;;;;;;;1.85;1.35;;;22.80;47.80;;;;;;5058114;28;20035;-85
2022/07/05 00:19:11;;;;;;;2.20;1.40;;;22.80;47.90;;;;;;5082091;28;20043;-85
2022/07/05 00:21:37;;;;;;;1.55;1.15;;;22.70;47.90;;;;;;5114409;28;20111;-84
2022/07/05 00:24:03;;;;;;;1.65;1.30;;;22.70;48.00;;;;;;5095597;28;20021;-85
2022/07/05 00:26:29;;;;;;;2.15;1.20;;;22.70;48.00;;;;;;5095175;28;20110;-84
2022/07/05 00:28:54;;;;;;;1.50;1.15;;;22.60;48.00;;;;;;5095298;28;20040;-84
2022/07/05 00:31:20;;;;;;;1.90;1.17;;;22.60;48.10;;;;;;5105382;28;20114;-84
2022/07/05 00:33:46;;;;;;;1.48;1.23;;;22.50;48.10;;;;;;5095790;28;20118;-84
2022/07/05 00:36:11;;;;;;;1.42;1.20;;;22.50;48.20;;;;;;5110001;28;20031;-84
2022/07/05 00:38:37;;;;;;;2.60;1.30;;;22.50;48.30;;;;;;5077372;28;20048;-85
2022/07/05 00:41:03;;;;;;;2.17;1.40;;;22.50;48.40;;;;;;5096518;28;20047;-85
2022/07/05 00:43:29;;;;;;;1.85;1.30;;;22.40;48.30;;;;;;5075175;28;20109;-85
2022/07/05 00:45:55;;;;;;;1.55;1.30;;;22.40;48.40;;;;;;5076140;28;20386;-84
2022/07/05 00:48:21;;;;;;;1.30;1.20;;;22.40;48.50;;;;;;5078185;28;20028;-84
2022/07/05 00:50:47;;;;;;;1.95;1.20;;;22.30;48.50;;;;;;5097938;28;20468;-84
2022/07/05 00:53:13;;;;;;;1.75;1.33;;;22.30;48.60;;;;;;5089232;28;20028;-85
2022/07/05 00:55:40;;;;;;;1.63;1.25;;;22.30;48.70;;;;;;5094114;28;20035;-85
2022/07/05 00:58:06;;;;;;;1.52;1.00;;;22.20;48.70;;;;;;5076156;28;20048;-85
2022/07/05 01:00:32;;;;;;;1.90;1.42;;;22.20;48.70;;;;;;5075390;28;20031;-84
2022/07/05 01:02:58;;;;;;;1.38;1.27;;;22.10;48.70;;;;;;5096222;28;20532;-85
2022/07/05 01:05:24;;;;;;;1.98;1.20;;;22.10;48.80;;;;;;5111722;28;20035;-84
2022/07/05 01:07:50;;;;;;;1.08;1.02;;;22.10;48.90;;;;;;5112876;28;20081;-84
2022/07/05 01:10:16;;;;;;;1.50;1.40;;;22.00;48.90;;;;;;5087651;28;20047;-84
2022/07/05 01:12:42;;;;;;;1.60;1.08;;;22.00;48.90;;;;;;5092638;28;20052;-84
2022/07/05 01:15:08;;;;;;;2.20;1.30;;;22.00;49.00;;;;;;5075775;28;20066;-85
2022/07/05 01:17:36;;;;;;;1.60;1.33;;;22.00;49.10;;;;;;5095887;28;20042;-86
2022/07/05 01:20:04;;;;;;;1.45;1.23;;;21.90;49.20;;;;;;5078165;28;20023;-85
2022/07/05 01:22:53;;;;;;;1.63;1.30;;;21.90;49.20;;;;;;5112792;28;20100;-84
2022/07/05 01:25:21;;;;;;;1.40;1.27;;;21.80;49.30;;;;;;5094846;28;20043;-84
2022/07/05 01:27:48;;;;;;;2.08;1.35;;;21.80;49.20;;;;;;5112083;28;20490;-85
2022/07/05 01:30:14;;;;;;;1.30;1.20;;;21.80;49.30;;;;;;5110447;28;20032;-84
2022/07/05 01:32:40;;;;;;;2.33;1.40;;;21.70;49.30;;;;;;5111366;28;20047;-85
2022/07/05 01:35:08;;;;;;;1.45;1.05;;;21.70;49.30;;;;;;5093219;28;20055;-85
2022/07/05 01:37:33;;;;;;;1.30;1.20;;;21.70;49.40;;;;;;5077137;28;20040;-84
2022/07/05 01:40:02;;;;;;;1.80;1.30;;;21.60;49.40;;;;;;5094028;28;20032;-85
2022/07/05 01:42:28;;;;;;;1.20;1.10;;;21.60;49.50;;;;;;5084325;28;20501;-85
2022/07/05 01:44:54;;;;;;;1.35;1.25;;;21.50;50.10;;;;;;5093621;28;20027;-84
2022/07/05 01:47:20;;;;;;;1.35;1.20;;;21.50;49.50;;;;;;5115205;28;20118;-85
2022/07/05 01:49:49;;;;;;;1.65;1.30;;;21.50;49.60;;;;;;5112100;28;20395;-84
2022/07/05 01:52:19;;;;;;;1.42;1.20;;;21.50;49.70;;;;;;5097286;28;20032;-85
2022/07/05 01:54:45;;;;;;;1.65;1.38;;;21.40;49.70;;;;;;5091534;28;20032;-85
2022/07/05 01:57:11;;;;;;;1.63;1.30;;;21.40;49.70;;;;;;5075548;28;20420;-84
2022/07/05 01:59:37;;;;;;;1.40;1.30;;;21.40;49.90;;;;;;5112073;28;20038;-84
2022/07/05 02:02:05;;;;;;;1.33;1.23;;;21.30;49.80;;;;;;5089745;28;20138;-85
2022/07/05 02:04:32;;;;;;;1.30;1.20;;;21.30;49.80;;;;;;5091199;28;20475;-84
2022/07/05 02:06:58;;;;;;;1.77;1.20;;;21.30;49.90;;;;;;5105283;28;20037;-85
2022/07/05 02:09:24;;;;;;;2.05;1.35;;;21.20;49.90;;;;;;5111499;28;20168;-84
2022/07/05 02:11:51;;;;;;;2.53;1.50;;;21.20;50.00;;;;;;5070763;28;20146;-84
2022/07/05 02:14:17;;;;;;;1.65;1.30;;;21.10;50.00;;;;;;5090219;28;20032;-84
2022/07/05 02:16:43;;;;;;;1.55;1.40;;;21.10;50.00;;;;;;5068757;28;20399;-85
2022/07/05 02:19:10;;;;;;;1.98;1.20;;;21.10;50.10;;;;;;5098664;28;20066;-84
2022/07/05 02:21:39;;;;;;;1.00;1.00;;;21.10;50.10;;;;;;5081577;28;20027;-85
2022/07/05 02:24:08;;;;;;;2.13;1.40;;;21.00;50.20;;;;;;5091272;28;20557;-84
2022/07/05 02:26:40;;;;;;;1.40;1.30;;;21.00;50.20;;;;;;5098768;28;20114;-84
2022/07/05 02:29:06;;;;;;;1.67;1.40;;;21.00;50.30;;;;;;5094486;28;20066;-84
2022/07/05 02:31:33;;;;;;;1.33;1.23;;;20.90;50.30;;;;;;5102714;28;20121;-84
2022/07/05 02:34:02;;;;;;;2.17;1.38;;;20.90;50.40;;;;;;5125943;28;20032;-84
2022/07/05 02:36:28;;;;;;;1.30;1.17;;;20.90;50.40;;;;;;5085103;28;20040;-83
2022/07/05 02:38:54;;;;;;;1.30;1.10;;;20.80;50.40;;;;;;5088199;28;20040;-82
2022/07/05 02:41:19;;;;;;;1.30;1.20;;;20.80;50.50;;;;;;5089990;28;20070;-84
2022/07/05 02:43:48;;;;;;;2.13;1.70;;;20.80;50.60;;;;;;5103394;28;20062;-84
2022/07/05 02:46:17;;;;;;;1.73;1.50;;;20.70;50.60;;;;;;5101531;28;20123;-85
2022/07/05 02:48:43;;;;;;;1.45;1.20;;;20.70;50.70;;;;;;5115150;28;20086;-84
2022/07/05 02:51:09;;;;;;;1.52;1.30;;;20.60;50.70;;;;;;5074174;28;20388;-84
2022/07/05 02:53:35;;;;;;;1.30;1.20;;;20.60;50.80;;;;;;5076705;28;20375;-84
2022/07/05 02:56:03;;;;;;;1.25;1.15;;;20.60;50.80;;;;;;5086318;28;20119;-84
2022/07/05 02:58:29;;;;;;;2.85;1.27;;;20.60;50.90;;;;;;5093866;28;20038;-84
2022/07/05 03:00:57;;;;;;;1.50;1.40;;;20.60;51.00;;;;;;5110772;28;20024;-84
2022/07/05 03:03:25;;;;;;;2.85;1.50;;;20.50;51.00;;;;;;5091867;28;20053;-84
2022/07/05 03:05:52;;;;;;;1.88;1.40;;;20.50;51.10;;;;;;5077709;28;20032;-84
2022/07/05 03:08:18;;;;;;;2.03;1.40;;;20.50;51.20;;;;;;5075536;28;20047;-84
2022/07/05 03:10:44;;;;;;;1.90;1.38;;;20.50;51.20;;;;;;5066761;28;20037;-84
2022/07/05 03:13:10;;;;;;;1.67;1.40;;;20.40;51.20;;;;;;5094053;28;20102;-83
2022/07/05 03:15:37;;;;;;;2.38;1.60;;;20.40;51.30;;;;;;5086833;28;20028;-84
2022/07/05 03:18:03;;;;;;;1.63;1.27;;;20.40;51.40;;;;;;5078616;28;20044;-84
2022/07/05 03:20:31;;;;;;;1.65;1.38;;;20.40;51.50;;;;;;5076544;28;20027;-84
2022/07/05 03:22:56;;;;;;;1.58;1.17;;;20.30;51.50;;;;;;5066211;28;20066;-84
2022/07/05 03:25:29;;;;;;;2.13;1.35;;;20.30;51.60;;;;;;5046817;28;20032;-84
2022/07/05 03:27:56;;;;;;;1.85;1.35;;;20.30;51.60;;;;;;5086605;28;20032;-84
2022/07/05 03:30:22;;;;;;;1.45;1.35;;;20.30;51.70;;;;;;5090518;28;20544;-84
2022/07/05 03:32:49;;;;;;;2.50;1.60;;;20.20;51.70;;;;;;5093395;28;20119;-84
2022/07/05 03:35:15;;;;;;;1.50;1.40;;;20.20;51.80;;;;;;5087441;28;20032;-84
2022/07/05 03:37:42;;;;;;;1.65;1.40;;;20.20;51.80;;;;;;5105607;28;20024;-84
2022/07/05 03:40:08;;;;;;;2.65;1.33;;;20.20;51.90;;;;;;5115198;28;20036;-84
2022/07/05 03:42:35;;;;;;;2.05;1.50;;;20.20;51.90;;;;;;5070213;28;20055;-84
2022/07/05 03:45:02;;;;;;;2.42;1.50;;;20.20;52.00;;;;;;5076373;28;20024;-84
2022/07/05 03:47:28;;;;;;;1.73;1.40;;;20.20;52.00;;;;;;5097799;28;20028;-84
2022/07/05 03:49:54;;;;;;;2.03;1.58;;;20.20;52.10;;;;;;5100825;28;20061;-84
2022/07/05 03:52:20;;;;;;;1.60;1.50;;;20.20;52.20;;;;;;5097829;28;20065;-84
2022/07/05 03:54:47;;;;;;;1.80;1.45;;;20.10;52.20;;;;;;5073196;28;20480;-84
2022/07/05 03:57:13;;;;;;;1.40;1.30;;;20.10;52.20;;;;;;5096243;28;20028;-83
2022/07/05 03:59:39;;;;;;;2.35;1.60;;;20.10;52.20;;;;;;5082499;28;20437;-85
2022/07/05 04:02:05;;;;;;;1.58;1.48;;;20.10;52.30;;;;;;5086342;28;20151;-83
2022/07/05 04:04:31;;;;;;;2.78;1.88;;;20.10;52.30;;;;;;5058587;28;20138;-82
2022/07/05 04:06:57;;;;;;;1.98;1.65;;;20.10;52.40;;;;;;5063964;28;20024;-83
2022/07/05 04:09:23;;;;;;;1.50;1.33;;;20.10;52.50;;;;;;5082097;28;20065;-82
2022/07/05 04:11:48;;;;;;;2.03;1.42;;;20.00;52.40;;;;;;5089685;28;20032;-82
2022/07/05 04:14:14;;;;;;;1.92;1.67;;;20.00;52.50;;;;;;5096659;28;20463;-81
2022/07/05 04:16:40;;;;;;;2.58;1.60;;;20.00;52.50;;;;;;5094522;28;20100;-82
2022/07/05 04:19:06;;;;;;;2.08;1.60;;;20.00;52.60;;;;;;5075547;28;20049;-82
2022/07/05 04:21:34;;;;;;;2.25;1.70;;;20.00;52.60;;;;;;5111881;28;20042;-81
2022/07/05 04:24:00;;;;;;;1.60;1.50;;;20.00;52.70;;;;;;5069520;28;20126;-82
2022/07/05 04:26:26;;;;;;;2.63;1.70;;;20.00;52.70;;;;;;5094925;28;20036;-82
2022/07/05 04:28:52;;;;;;;1.70;1.60;;;20.00;52.80;;;;;;5090075;28;20422;-82
2022/07/05 04:31:24;;;;;;;1.90;1.63;;;19.90;52.70;;;;;;5093780;28;20038;-82
2022/07/05 04:33:51;;;;;;;2.20;1.90;;;19.90;52.80;;;;;;5094206;28;20031;-82
2022/07/05 04:36:21;;;;;;;2.80;1.70;;;19.90;52.80;;;;;;5094038;28;20054;-82
2022/07/05 04:38:50;;;;;;;2.40;1.70;;;19.90;53.50;;;;;;5067843;28;20609;-82
2022/07/05 04:41:16;;;;;;;2.58;1.95;;;19.90;52.90;;;;;;5077924;28;20170;-83
2022/07/05 04:43:42;;;;;;;2.38;1.80;;;19.90;53.00;;;;;;5071606;28;20644;-82
2022/07/05 04:46:11;;;;;;;2.30;1.58;;;19.90;53.00;;;;;;5052755;28;20036;-83
2022/07/05 04:48:37;;;;;;;2.85;1.80;;;19.90;53.10;;;;;;5078629;28;20032;-81
2022/07/05 04:51:04;;;;;;;3.13;1.83;;;19.90;53.10;;;;;;5102492;28;20257;-81
2022/07/05 04:53:32;;;;;;;2.83;1.90;;;19.90;53.20;;;;;;5104928;28;20031;-80
2022/07/05 04:55:57;;;;;;;2.35;1.92;;;19.90;53.20;;;;;;5098372;28;20357;-82
2022/07/05 04:58:23;;;;;;;2.63;1.88;;;19.90;53.20;;;;;;5085088;28;20035;-83
2022/07/05 05:00:49;;;;;;;1.88;1.65;;;19.90;53.30;;;;;;5066360;28;20535;-82
2022/07/05 05:03:14;;;;;;;2.38;2.05;;;19.90;53.30;;;;;;5070427;28;20034;-91
2022/07/05 05:05:40;;;;;;;2.35;1.77;;;19.90;53.30;;;;;;5089331;28;20111;-81
2022/07/05 05:08:06;;;;;;;2.33;1.80;;;19.90;53.30;;;;;;5078330;28;20696;-82
2022/07/05 05:10:32;;;;;;;1.98;1.77;;;19.90;53.40;;;;;;5077997;28;20051;-82
2022/07/05 05:12:57;;;;;;;2.80;1.85;;;19.90;53.40;;;;;;5086829;28;20032;-83
2022/07/05 05:15:23;;;;;;;2.10;1.88;;;19.90;53.50;;;;;;5091076;28;20391;-83
2022/07/05 05:17:49;;;;;;;2.75;1.98;;;19.90;53.50;;;;;;5063013;28;20036;-79
2022/07/05 05:20:17;;;;;;;2.53;2.10;;;19.90;53.50;;;;;;5087159;28;20436;-81
2022/07/05 05:22:43;;;;;;;2.65;1.92;;;19.90;53.60;;;;;;5086473;28;20032;-81
2022/07/05 05:25:10;;;;;;;2.65;1.95;;;19.90;53.60;;;;;;5072071;28;20058;-81
2022/07/05 05:27:44;;;;;;;2.97;1.85;;;19.90;53.70;;;;;;5091323;28;20043;-82
2022/07/05 05:30:11;;;;;;;2.00;1.80;;;19.90;53.80;;;;;;5104309;28;20067;-83
2022/07/05 05:32:37;;;;;;;3.20;2.20;;;19.90;53.70;;;;;;5103156;28;20023;-83
2022/07/05 05:35:04;;;;;;;2.78;2.25;;;19.90;53.80;;;;;;5112289;28;20023;-84
2022/07/05 05:37:29;;;;;;;2.88;2.15;;;19.90;53.80;;;;;;5104865;28;20032;-83
2022/07/05 05:39:56;;;;;;;2.55;1.83;;;19.90;53.80;;;;;;5067405;28;20032;-84
2022/07/05 05:42:22;;;;;;;3.08;2.40;;;19.90;53.80;;;;;;5086035;28;20031;-84
2022/07/05 05:44:48;;;;;;;3.00;2.20;;;19.90;53.90;;;;;;5097254;28;20028;-84
2022/07/05 05:47:13;;;;;;;3.00;2.20;;;19.90;53.90;;;;;;5094590;28;20088;-83
2022/07/05 05:49:39;;;;;;;2.70;2.15;;;20.00;54.00;;;;;;5112699;28;20034;-86
2022/07/05 05:52:05;;;;;;;3.08;2.33;;;20.00;54.00;;;;;;5110361;28;20110;-84
2022/07/05 05:54:31;;;;;;;3.55;2.55;;;20.00;54.00;;;;;;5088242;28;20028;-84
2022/07/05 05:56:57;;;;;;;2.95;2.20;;;20.00;54.00;;;;;;5077980;28;20085;-84
2022/07/05 05:59:22;;;;;;;3.95;2.47;;;20.00;54.00;;;;;;5099987;28;20038;-84
2022/07/05 06:01:48;;;;;;;3.75;2.67;;;20.00;54.00;;;;;;5106515;28;20126;-83
2022/07/05 06:04:14;;;;;;;3.13;2.30;;;20.00;54.10;;;;;;5068973;28;20119;-84
2022/07/05 06:06:40;;;;;;;3.55;2.47;;;20.10;54.10;;;;;;5106712;28;20151;-84
2022/07/05 06:09:05;;;;;;;2.97;2.50;;;20.10;54.10;;;;;;5082878;28;20035;-84
2022/07/05 06:11:31;;;;;;;3.15;2.50;;;20.10;54.10;;;;;;5083375;28;20087;-83
2022/07/05 06:13:57;;;;;;;2.85;2.15;;;20.10;54.10;;;;;;5101095;28;20054;-84
2022/07/05 06:16:22;;;;;;;2.10;1.90;;;20.20;54.20;;;;;;5101029;28;20028;-85
2022/07/05 06:18:48;;;;;;;3.47;2.30;;;20.10;54.10;;;;;;5109046;28;20460;-84
2022/07/05 06:21:14;;;;;;;3.63;2.45;;;20.10;54.10;;;;;;5083194;28;20035;-85
2022/07/05 06:23:39;;;;;;;2.75;2.22;;;20.10;54.10;;;;;;5085820;28;20027;-85
2022/07/05 06:26:05;;;;;;;3.85;2.38;;;20.20;54.10;;;;;;5072752;28;20481;-85
2022/07/05 06:28:32;;;;;;;3.45;2.42;;;20.20;54.10;;;;;;5083802;28;20035;-85
2022/07/05 06:30:58;;;;;;;3.78;2.60;;;20.20;54.10;;;;;;5058714;28;20038;-85
2022/07/05 06:33:23;;;;;;;3.25;2.40;;;20.30;54.10;;;;;;5073870;28;20110;-84
2022/07/05 06:35:49;;;;;;;3.80;2.45;;;20.30;54.10;;;;;;5061272;28;20042;-85
2022/07/05 06:38:15;;;;;;;2.55;2.03;;;20.30;54.10;;;;;;5107434;28;20069;-84
2022/07/05 06:40:42;;;;;;;2.83;2.10;;;20.30;54.10;;;;;;5083250;28;20024;-85
2022/07/05 06:43:10;;;;;;;2.42;1.90;;;20.40;54.20;;;;;;5102790;28;20038;-84
2022/07/05 06:45:51;;;;;;;3.03;2.10;;;20.40;54.10;;;;;;5066212;28;20031;-84
2022/07/05 06:48:17;;;;;;;3.83;2.30;;;20.40;54.10;;;;;;5065511;28;20032;-86
2022/07/05 06:50:43;;;;;;;3.10;2.20;;;20.50;54.20;;;;;;5107739;28;20047;-84
2022/07/05 06:53:11;;;;;;;4.15;2.40;;;20.50;54.20;;;;;;5076968;28;20070;-84
2022/07/05 06:55:37;;;;;;;2.70;2.00;;;20.50;54.20;;;;;;5085304;28;20024;-85
2022/07/05 06:58:08;;;;;;;4.00;2.30;;;20.50;54.20;;;;;;5076599;28;20541;-85
2022/07/05 07:00:34;;;;;;;3.38;2.50;;;20.50;54.20;;;;;;5068706;28;20152;-85
2022/07/05 07:02:59;;;;;;;3.03;2.28;;;20.60;54.20;;;;;;5070932;28;20095;-85
2022/07/05 07:05:25;;;;;;;2.88;2.10;;;20.60;54.20;;;;;;5107639;28;20031;-84
2022/07/05 07:10:35;;;;;;;3.00;2.03;;;20.60;54.10;;;;;;5107420;28;20062;-84
2022/07/05 07:13:02;;;;;;;3.50;2.40;;;20.70;54.00;;;;;;5116623;28;20265;-85
2022/07/05 07:15:28;;;;;;;3.47;2.08;;;20.70;54.10;;;;;;5098538;28;20096;-83
2022/07/05 07:17:54;;;;;;;2.75;2.08;;;20.70;54.10;;;;;;5088130;28;20028;-84
2022/07/05 07:20:20;;;;;;;2.72;2.05;;;20.70;54.00;;;;;;5091503;28;20081;-84
2022/07/05 07:22:46;;;;;;;3.50;2.00;;;20.80;54.10;;;;;;5090120;28;20032;-85
2022/07/05 07:25:12;;;;;;;2.90;2.00;;;20.80;54.00;;;;;;5115253;28;20043;-85
2022/07/05 07:27:49;;;;;;;2.90;2.30;;;20.80;54.00;;;;;;5088355;28;20103;-85
2022/07/05 07:30:17;;;;;;;3.10;2.00;;;20.90;54.10;;;;;;5092446;28;20532;-84
2022/07/05 07:32:44;;;;;;;2.25;1.80;;;20.90;53.90;;;;;;5114899;28;20024;-83
2022/07/05 07:35:10;;;;;;;2.83;1.95;;;20.90;53.90;;;;;;5109051;28;20028;-85
2022/07/05 07:37:36;;;;;;;2.80;1.80;;;20.90;53.80;;;;;;5089615;28;20099;-85
2022/07/05 07:40:04;;;;;;;2.20;1.73;;;21.00;53.80;;;;;;5089641;28;20027;-85
2022/07/05 07:42:30;;;;;;;1.95;1.73;;;21.00;53.80;;;;;;5055971;28;20379;-84
2022/07/05 07:44:55;;;;;;;2.45;2.03;;;21.00;53.70;;;;;;5097610;28;20035;-84
2022/07/05 07:47:21;;;;;;;2.60;1.88;;;21.10;53.70;;;;;;5114769;28;20036;-84
2022/07/05 07:49:47;;;;;;;2.42;1.50;;;21.10;53.60;;;;;;5097996;28;20031;-85
2022/07/05 07:52:13;;;;;;;1.92;1.60;;;21.20;53.50;;;;;;5097293;28;20030;-85
2022/07/05 07:54:39;;;;;;;2.13;1.73;;;21.20;53.40;;;;;;5107687;28;20024;-85
2022/07/05 07:57:05;;;;;;;2.42;2.00;;;21.30;53.40;;;;;;5086065;28;20036;-85
2022/07/05 07:59:34;;;;;;;1.88;1.50;;;21.40;53.30;;;;;;5072542;28;20088;-85
2022/07/05 08:02:00;;;;;;;2.65;1.77;;;21.40;53.30;;;;;;5107032;28;20368;-85
2022/07/05 08:04:26;;;;;;;2.20;1.75;;;21.50;53.20;;;;;;5106549;28;20092;-85
2022/07/05 08:06:52;;;;;;;1.52;1.42;;;21.50;53.10;;;;;;5055443;28;20042;-85
2022/07/05 08:09:19;;;;;;;1.70;1.50;;;21.60;53.00;;;;;;5053093;28;20032;-84
2022/07/05 08:11:46;;;;;;;1.67;1.35;;;21.60;53.00;;;;;;5072398;28;20015;-85
2022/07/05 08:14:13;;;;;;;1.77;1.55;;;21.70;53.00;;;;;;5104297;28;20050;-85
2022/07/05 08:16:38;;;;;;;2.03;1.83;;;21.80;53.00;;;;;;5105566;28;20052;-85
2022/07/05 08:21:49;;;;;;;1.85;1.48;;;21.90;52.90;;;;;;5091773;28;20088;-85
2022/07/05 08:24:15;;;;;;;1.80;1.60;;;21.90;52.80;;;;;;5072793;28;20024;-85
2022/07/05 08:26:41;;;;;;;1.70;1.35;;;22.00;52.80;;;;;;5069869;28;20027;-84
2022/07/05 08:29:12;;;;;;;2.00;1.60;;;22.00;52.80;;;;;;5096552;28;20530;-85
2022/07/05 08:31:44;;;;;;;2.30;1.55;;;22.00;52.70;;;;;;5112728;28;20080;-85
2022/07/05 08:34:10;;;;;;;2.40;1.60;;;22.10;52.70;;;;;;5102045;28;20691;-86
2022/07/05 08:36:37;;;;;;;1.60;1.50;;;22.20;52.60;;;;;;5084651;28;20032;-84
2022/07/05 08:39:03;;;;;;;2.33;1.70;;;22.30;52.60;;;;;;5088053;28;20148;-84
2022/07/05 08:41:32;;;;;;;1.92;1.60;;;22.30;52.50;;;;;;5096329;28;20027;-85
2022/07/05 08:43:59;;;;;;;2.20;1.67;;;22.40;52.50;;;;;;5096203;28;20024;-84
2022/07/05 08:46:27;;;;;;;2.33;1.80;;;22.40;52.50;;;;;;5095876;28;20151;-85
2022/07/05 08:48:55;;;;;;;1.90;1.50;;;22.50;52.40;;;;;;5087489;28;20024;-84
2022/07/05 08:51:22;;;;;;;3.08;2.05;;;22.50;52.40;;;;;;5084731;28;20031;-85
2022/07/05 08:53:49;;;;;;;1.60;1.33;;;22.60;52.40;;;;;;5102925;28;20024;-85
2022/07/05 08:56:17;;;;;;;2.08;1.65;;;22.60;52.30;;;;;;5104385;28;20133;-84
2022/07/05 08:58:43;;;;;;;2.22;1.58;;;22.60;52.40;;;;;;5070673;28;20035;-84
2022/07/05 09:01:10;;;;;;;1.60;1.48;;;22.70;52.20;;;;;;5095252;28;20122;-84
2022/07/05 09:03:50;;;;;;;2.03;1.40;;;22.80;52.20;;;;;;5080282;28;20555;-85
2022/07/05 09:06:22;;;;;;;1.67;1.40;;;22.80;52.20;;;;;;5096487;28;20035;-86
2022/07/05 09:08:51;;;;;;;1.42;1.33;;;22.90;52.20;;;;;;5107238;28;20027;-86
2022/07/05 09:11:21;;;;;;;1.63;1.40;;;22.90;52.10;;;;;;5087487;28;20027;-86
2022/07/05 09:13:50;;;;;;;1.55;1.42;;;22.90;52.10;;;;;;5089490;28;20040;-86
2022/07/05 09:16:16;;;;;;;1.38;1.20;;;23.00;52.00;;;;;;5087279;28;20122;-86
2022/07/05 09:18:46;;;;;;;1.95;1.35;;;23.10;52.00;;;;;;5076469;28;20132;-87
2022/07/05 09:21:14;;;;;;;1.40;1.13;;;23.10;51.90;;;;;;5084384;28;20138;-87
2022/07/05 09:23:40;;;;;;;1.20;1.10;;;23.20;51.90;;;;;;5109992;28;20076;-87
2022/07/05 09:26:06;;;;;;;1.77;1.25;;;23.30;51.80;;;;;;5101163;28;20034;-87
2022/07/05 09:28:31;;;;;;;1.70;1.23;;;23.40;51.80;;;;;;5067716;28;20044;-87
2022/07/05 09:30:57;;;;;;;2.08;1.35;;;23.40;51.70;;;;;;5114093;28;20028;-86
2022/07/05 09:33:23;;;;;;;2.10;1.40;;;23.50;51.60;;;;;;5095779;28;20024;-85
2022/07/05 09:35:56;;;;;;;1.52;1.40;;;23.60;51.60;;;;;;5062407;28;20027;-87
2022/07/05 09:38:23;;;;;;;1.73;1.40;;;23.60;51.50;;;;;;5095339;28;20047;-86
2022/07/05 09:40:49;;;;;;;1.80;1.25;;;23.70;51.40;;;;;;5094810;28;20092;-86
2022/07/05 09:43:17;;;;;;;1.33;1.23;;;23.80;51.30;;;;;;5083778;28;20032;-86
2022/07/05 09:45:56;;;;;;;1.75;1.33;;;23.80;51.20;;;;;;5066792;28;20039;-85
2022/07/05 09:48:23;;;;;;;1.20;1.10;;;23.90;51.30;;;;;;5087619;28;20034;-86
2022/07/05 09:50:51;;;;;;;1.98;1.40;;;23.90;51.10;;;;;;5069911;28;20034;-86
2022/07/05 09:53:20;;;;;;;1.55;1.35;;;24.00;51.10;;;;;;5086662;28;20035;-86
2022/07/05 09:56:02;;;;;;;1.42;1.33;;;24.00;51.10;;;;;;5095323;28;20061;-86
2022/07/05 09:58:28;;;;;;;1.75;1.17;;;24.00;51.10;;;;;;5113411;28;20035;-86
2022/07/05 10:00:54;;;;;;;1.63;1.35;;;24.10;51.10;;;;;;5086681;28;20439;-86
2022/07/05 10:03:20;;;;;;;1.58;1.30;;;24.10;51.00;;;;;;5086638;28;20055;-86
2022/07/05 10:05:46;;;;;;;2.05;1.40;;;24.20;51.10;;;;;;5086499;28;20024;-86
2022/07/05 10:08:13;;;;;;;1.67;1.25;;;24.10;51.00;;;;;;5053766;28;20136;-86
2022/07/05 10:10:41;;;;;;;2.00;1.30;;;24.20;51.00;;;;;;5087003;28;20024;-86
2022/07/05 10:13:07;;;;;;;2.33;1.45;;;24.20;51.00;;;;;;5112497;28;20015;-87
2022/07/05 10:15:35;;;;;;;1.30;1.20;;;24.20;51.00;;;;;;5077117;28;20039;-87
2022/07/05 10:18:09;;;;;;;2.28;1.50;;;24.20;51.00;;;;;;5089234;28;20024;-85
2022/07/05 10:20:41;;;;;;;1.95;1.40;;;24.30;51.10;;;;;;5093752;28;20051;-86
2022/07/05 10:23:18;;;;;;;2.08;1.58;;;24.30;51.00;;;;;;5087274;28;20032;-86
2022/07/05 10:25:48;;;;;;;3.65;1.50;;;24.30;51.10;;;;;;5094953;28;20043;-86
2022/07/05 10:28:18;;;;;;;1.40;1.30;;;24.40;51.00;;;;;;5095602;28;20048;-87
2022/07/05 10:30:46;;;;;;;1.52;1.30;;;24.40;51.00;;;;;;5060118;28;20042;-87
2022/07/05 10:33:16;;;;;;;1.80;1.30;;;24.50;51.00;;;;;;5101790;28;20121;-86
2022/07/05 10:35:45;;;;;;;1.48;1.20;;;24.50;50.90;;;;;;5069612;28;20032;-85
2022/07/05 10:38:12;;;;;;;1.25;1.10;;;24.60;50.90;;;;;;5096971;28;20051;-85
2022/07/05 10:40:40;;;;;;;1.35;1.23;;;24.60;50.80;;;;;;5091085;28;20058;-86
2022/07/05 10:43:07;;;;;;;1.42;1.27;;;24.70;50.70;;;;;;5098924;28;20039;-85
2022/07/05 10:45:39;;;;;;;1.33;1.23;;;24.80;50.70;;;;;;5073677;28;20046;-84
2022/07/05 10:48:18;;;;;;;1.98;1.33;;;24.80;50.60;;;;;;5096587;28;20034;-85
2022/07/05 10:51:12;;;;;;;1.35;1.25;;;24.90;50.50;;;;;;5104778;28;20102;-86
2022/07/05 10:53:37;;;;;;;1.02;0.95;;;24.90;50.40;;;;;;5079288;28;20058;-90
2022/07/05 10:56:03;;;;;;;1.35;1.17;;;25.00;50.30;;;;;;5089372;28;20463;-86
2022/07/05 10:58:32;;;;;;;2.22;1.20;;;25.10;51.00;;;;;;5086813;28;20054;-86
2022/07/05 11:01:23;;;;;;;1.63;1.20;;;25.10;50.30;;;;;;5111624;28;20031;-85
2022/07/05 11:04:00;;;;;;;1.65;1.20;;;25.20;50.30;;;;;;5110843;28;20110;-85
2022/07/05 11:06:31;;;;;;;1.20;1.10;;;25.20;50.20;;;;;;5089888;28;20032;-86
2022/07/05 11:09:00;;;;;;;1.65;1.13;;;25.30;50.10;;;;;;5116071;28;20107;-86
2022/07/05 11:11:26;;;;;;;1.30;1.20;;;25.30;50.10;;;;;;5114616;28;20023;-86
2022/07/05 11:13:54;;;;;;;2.05;1.20;;;25.40;50.10;;;;;;5086514;28;20505;-86
2022/07/05 11:16:24;;;;;;;1.75;1.13;;;25.40;50.00;;;;;;5086803;28;20024;-86
2022/07/05 11:18:52;;;;;;;1.55;1.30;;;25.40;50.00;;;;;;5090253;28;20487;-86
2022/07/05 11:21:22;;;;;;;1.45;1.02;;;25.50;50.10;;;;;;5115976;28;20545;-86
2022/07/05 11:23:49;;;;;;;1.30;1.20;;;25.50;50.10;;;;;;5089387;28;20049;-86
2022/07/05 11:26:18;;;;;;;1.30;1.20;;;25.50;50.00;;;;;;5069612;28;20024;-86
2022/07/05 11:28:48;;;;;;;1.80;1.20;;;25.60;50.00;;;;;;5096863;28;20518;-86
2022/07/05 11:31:46;;;;;;;1.13;1.02;;;25.60;49.90;;;;;;5073133;28;20502;-85
2022/07/05 11:34:13;;;;;;;2.20;1.30;;;25.60;50.00;;;;;;5048641;28;20476;-86
2022/07/05 11:36:39;;;;;;;1.20;1.02;;;25.70;50.00;;;;;;5069633;28;20483;-86
2022/07/05 11:39:20;;;;;;;1.27;1.10;;;25.70;50.00;;;;;;5089531;28;20047;-85
2022/07/05 11:41:49;;;;;;;2.78;1.20;;;25.70;50.00;;;;;;5114895;28;20039;-86
2022/07/05 11:44:15;;;;;;;0.90;0.90;;;25.70;49.90;;;;;;5056734;28;20023;-86
2022/07/05 11:46:43;;;;;;;1.48;1.20;;;25.70;49.90;;;;;;5072112;28;20427;-87
2022/07/05 11:49:09;;;;;;;1.50;1.02;;;25.80;50.00;;;;;;5093438;28;20042;-85
2022/07/05 11:51:35;;;;;;;1.30;1.20;;;25.80;50.00;;;;;;5102693;28;20035;-87
2022/07/05 11:54:03;;;;;;;2.88;1.27;;;25.80;49.90;;;;;;5104487;28;20430;-85
2022/07/05 11:56:29;;;;;;;1.73;1.10;;;25.90;50.00;;;;;;5072078;28;20042;-87
2022/07/05 11:58:55;;;;;;;1.10;0.85;;;25.90;50.00;;;;;;5114728;28;20036;-87
2022/07/05 12:01:20;;;;;;;1.00;0.93;;;25.90;50.00;;;;;;5055520;28;20081;-85
2022/07/05 12:03:54;;;;;;;1.15;1.05;;;25.90;50.00;;;;;;5088897;28;20031;-85
2022/07/05 12:06:20;;;;;;;1.13;0.80;;;25.90;50.00;;;;;;5089093;28;20085;-86
2022/07/05 12:08:46;;;;;;;0.98;0.88;;;26.00;50.00;;;;;;5063833;28;20047;-88
2022/07/05 12:13:56;;;;;;;1.42;0.88;;;26.00;50.00;;;;;;5094094;28;20133;-85
2022/07/05 12:16:22;;;;;;;1.58;0.90;;;26.00;49.90;;;;;;5080521;28;20032;-84
2022/07/05 12:18:48;;;;;;;0.95;0.90;;;26.10;50.00;;;;;;5110177;28;20093;-84
2022/07/05 12:21:14;;;;;;;1.60;1.00;;;26.00;49.90;;;;;;5103388;28;20020;-85
2022/07/05 12:23:47;;;;;;;1.60;0.95;;;26.10;50.60;;;;;;5086952;28;20074;-86
2022/07/05 12:26:14;;;;;;;1.33;1.10;;;26.10;49.90;;;;;;5088923;28;20024;-83
2022/07/05 12:28:41;;;;;;;1.25;0.90;;;26.10;49.90;;;;;;5070907;28;20027;-83
2022/07/05 12:31:21;;;;;;;1.45;1.20;;;26.10;49.90;;;;;;5071021;28;20352;-83
2022/07/05 12:33:48;;;;;;;1.48;1.00;;;26.10;50.00;;;;;;5070677;28;20024;-84
2022/07/05 12:36:23;;;;;;;1.48;0.93;;;26.20;50.00;;;;;;5113195;28;20028;-83
2022/07/05 12:38:49;;;;;;;1.00;0.90;;;26.20;49.90;;;;;;5100236;28;20048;-83
2022/07/05 12:41:22;;;;;;;1.08;0.98;;;26.20;49.90;;;;;;5089343;28;20045;-83
2022/07/05 12:43:58;;;;;;;1.60;0.90;;;26.30;50.00;;;;;;5072810;28;20118;-84
2022/07/05 12:46:38;;;;;;;1.15;0.80;;;26.20;49.90;;;;;;5071395;28;20059;-84
2022/07/05 12:49:03;;;;;;;0.90;0.80;;;26.20;49.90;;;;;;5065604;28;20448;-85
2022/07/05 12:51:32;;;;;;;1.98;1.10;;;26.30;49.90;;;;;;5104376;28;20067;-83
2022/07/05 12:59:40;;;;;;;1.35;0.77;;;26.30;49.80;;;;;;5085689;28;20115;-85
2022/07/05 13:02:06;;;;;;;0.80;0.80;;;26.30;49.70;;;;;;5109718;28;20081;-87
2022/07/05 13:04:32;;;;;;;1.35;0.88;;;26.40;49.80;;;;;;5109499;28;20460;-84
2022/07/05 13:07:00;;;;;;;1.23;0.80;;;26.40;49.70;;;;;;5109442;28;20024;-84